sensor_id;sensor_type;location;lat;lon;timestamp;pressure;altitude;pressure_sealevel;temperature;humidity
13476;BME280;6810;63.824;20.288;2023-11-18T00:01:53;102213.53;;;-10.93;73.16
13476;BME280;6810;63.824;20.288;2023-11-18T00:04:40;102224.72;;;-10.92;73.46
13476;BME280;6810;63.824;20.288;2023-11-18T00:07:27;102214.38;;;-10.94;73.26
13476;BME280;6810;63.824;20.288;2023-11-18T00:10:14;102126.88;;;-11.43;73.44
13476;BME280;6810;63.824;20.288;2023-11-18T00:13:01;102217.75;;;-10.95;73.46
13476;BME280;6810;63.824;20.288;2023-11-18T00:15:48;102222.91;;;-10.95;73.24
13476;BME280;6810;63.824;20.288;2023-11-18T00:18:35;102214.22;;;-10.97;72.50
13476;BME280;6810;63.824;20.288;2023-11-18T00:21:22;102207.38;;;-10.96;73.22
13476;BME280;6810;63.824;20.288;2023-11-18T00:24:09;102177.56;;;-11.09;73.03
13476;BME280;6810;63.824;20.288;2023-11-18T00:26:56;102198.75;;;-10.97;72.49
13476;BME280;6810;63.824;20.288;2023-11-18T00:29:43;102210.75;;;-10.97;72.75
13476;BME280;6810;63.824;20.288;2023-11-18T00:32:31;102197.47;;;-11.05;73.37
13476;BME280;6810;63.824;20.288;2023-11-18T00:35:19;102205.59;;;-10.97;72.73
13476;BME280;6810;63.824;20.288;2023-11-18T00:38:06;102210.75;;;-10.97;73.12
13476;BME280;6810;63.824;20.288;2023-11-18T00:40:53;102220.16;;;-10.98;72.48
13476;BME280;6810;63.824;20.288;2023-11-18T00:43:40;102212.44;;;-10.98;72.50
13476;BME280;6810;63.824;20.288;2023-11-18T00:46:27;102208.97;;;-10.98;72.73
13476;BME280;6810;63.824;20.288;2023-11-18T00:49:14;102214.22;;;-10.97;72.53
13476;BME280;6810;63.824;20.288;2023-11-18T00:52:02;102209.81;;;-10.99;73.41
13476;BME280;6810;63.824;20.288;2023-11-18T00:54:49;102209.81;;;-10.99;73.16
13476;BME280;6810;63.824;20.288;2023-11-18T00:57:37;102214.78;;;-11.02;72.88
13476;BME280;6810;63.824;20.288;2023-11-18T01:00:24;102222.66;;;-10.99;72.38
13476;BME280;6810;63.824;20.288;2023-11-18T01:03:11;102217.53;;;-10.99;72.96
13476;BME280;6810;63.824;20.288;2023-11-18T01:05:58;102218.06;;;-11.05;73.26
13476;BME280;6810;63.824;20.288;2023-11-18T01:08:46;102234.63;;;-11.00;72.48
13476;BME280;6810;63.824;20.288;2023-11-18T01:11:33;102238.03;;;-11.01;72.76
13476;BME280;6810;63.824;20.288;2023-11-18T01:14:38;102188.34;;;-11.32;73.02
13476;BME280;6810;63.824;20.288;2023-11-18T01:17:25;102235.44;;;-11.01;72.36
13476;BME280;6810;63.824;20.288;2023-11-18T01:20:12;102224.59;;;-11.11;72.67
13476;BME280;6810;63.824;20.288;2023-11-18T01:23:00;102231.00;;;-11.03;72.66
13476;BME280;6810;63.824;20.288;2023-11-18T01:25:47;102236.22;;;-11.02;72.53
13476;BME280;6810;63.824;20.288;2023-11-18T01:28:34;102222.03;;;-11.11;72.93
13476;BME280;6810;63.824;20.288;2023-11-18T01:31:24;102228.50;;;-11.02;73.33
13476;BME280;6810;63.824;20.288;2023-11-18T01:34:19;102205.53;;;-11.15;73.12
13476;BME280;6810;63.824;20.288;2023-11-18T01:37:09;102238.81;;;-11.02;73.22
13476;BME280;6810;63.824;20.288;2023-11-18T01:39:56;102240.44;;;-11.04;72.28
13476;BME280;6810;63.824;20.288;2023-11-18T01:42:44;102214.00;;;-11.17;73.09
13476;BME280;6810;63.824;20.288;2023-11-18T01:45:31;102237.13;;;-11.01;72.54
13476;BME280;6810;63.824;20.288;2023-11-18T01:48:19;102169.03;;;-11.40;73.03
13476;BME280;6810;63.824;20.288;2023-11-18T01:51:07;102229.41;;;-11.01;72.39
13476;BME280;6810;63.824;20.288;2023-11-18T01:53:54;102226.84;;;-11.01;72.46
13476;BME280;6810;63.824;20.288;2023-11-18T01:56:48;102190.75;;;-11.19;73.10
13476;BME280;6810;63.824;20.288;2023-11-18T01:59:36;102218.31;;;-11.00;72.48
13476;BME280;6810;63.824;20.288;2023-11-18T02:02:23;102218.31;;;-11.00;73.07
13476;BME280;6810;63.824;20.288;2023-11-18T02:05:12;102215.72;;;-11.00;73.33
13476;BME280;6810;63.824;20.288;2023-11-18T02:08:00;102194.44;;;-11.14;72.84
13476;BME280;6810;63.824;20.288;2023-11-18T02:11:01;102222.75;;;-10.98;73.04
13476;BME280;6810;63.824;20.288;2023-11-18T02:13:53;102209.13;;;-10.95;73.01
13476;BME280;6810;63.824;20.288;2023-11-18T02:16:44;102210.03;;;-10.95;72.87
13476;BME280;6810;63.824;20.288;2023-11-18T02:19:36;102176.44;;;-11.14;72.54
13476;BME280;6810;63.824;20.288;2023-11-18T02:22:26;102208.50;;;-10.91;72.43
13476;BME280;6810;63.824;20.288;2023-11-18T02:25:17;102206.78;;;-10.91;72.43
13476;BME280;6810;63.824;20.288;2023-11-18T02:28:04;102208.59;;;-10.89;72.59
13476;BME280;6810;63.824;20.288;2023-11-18T02:31:05;102196.13;;;-10.98;72.72
13476;BME280;6810;63.824;20.288;2023-11-18T02:34:01;102200.19;;;-10.85;73.39
13476;BME280;6810;63.824;20.288;2023-11-18T02:36:50;102050.91;;;-11.70;72.47
13476;BME280;6810;63.824;20.288;2023-11-18T02:39:43;102195.88;;;-10.86;72.53
13476;BME280;6810;63.824;20.288;2023-11-18T02:42:30;102198.84;;;-10.79;72.62
13476;BME280;6810;63.824;20.288;2023-11-18T02:45:17;102194.63;;;-10.77;73.24
13476;BME280;6810;63.824;20.288;2023-11-18T12:03:23;102166.56;;;-4.35;74.78
13476;BME280;6810;63.824;20.288;2023-11-18T12:06:12;102152.50;;;-4.43;75.15
13476;BME280;6810;63.824;20.288;2023-11-18T12:08:59;102171.09;;;-4.28;76.03
13476;BME280;6810;63.824;20.288;2023-11-18T12:11:47;102175.50;;;-4.24;75.91
13476;BME280;6810;63.824;20.288;2023-11-18T12:14:49;102181.59;;;-4.24;74.75
13476;BME280;6810;63.824;20.288;2023-11-18T12:20:44;102181.75;;;-4.18;75.10
13476;BME280;6810;63.824;20.288;2023-11-18T12:23:34;102183.56;;;-4.14;76.28
13476;BME280;6810;63.824;20.288;2023-11-18T12:26:40;102183.69;;;-4.09;74.97
13476;BME280;6810;63.824;20.288;2023-11-18T12:29:31;102179.44;;;-4.06;75.82
13476;BME280;6810;63.824;20.288;2023-11-18T12:41:40;102184.03;;;-3.94;75.21
13476;BME280;6810;63.824;20.288;2023-11-18T12:44:31;102157.06;;;-3.99;76.01
13476;BME280;6810;63.824;20.288;2023-11-18T12:47:24;102179.78;;;-3.92;76.36
13476;BME280;6810;63.824;20.288;2023-11-18T12:50:11;102174.59;;;-3.91;76.04
13476;BME280;6810;63.824;20.288;2023-11-18T12:52:51;102168.53;;;-3.90;75.74
13476;BME280;6810;63.824;20.288;2023-11-18T12:55:20;102157.16;;;-3.95;75.50
13476;BME280;6810;63.824;20.288;2023-11-18T12:57:48;102169.44;;;-3.89;75.47
13476;BME280;6810;63.824;20.288;2023-11-18T13:00:18;102167.75;;;-3.87;75.43
13476;BME280;6810;63.824;20.288;2023-11-18T13:02:54;102177.31;;;-3.86;76.56
13476;BME280;6810;63.824;20.288;2023-11-18T13:05:22;102161.44;;;-3.97;76.16
13476;BME280;6810;63.824;20.288;2023-11-18T13:07:49;102180.75;;;-3.87;76.86
13476;BME280;6810;63.824;20.288;2023-11-18T13:10:17;102167.63;;;-3.92;75.69
13476;BME280;6810;63.824;20.288;2023-11-18T13:12:44;102065.53;;;-4.53;76.09
13476;BME280;6810;63.824;20.288;2023-11-18T13:15:12;102179.03;;;-3.87;76.35
13476;BME280;6810;63.824;20.288;2023-11-18T13:17:39;102157.84;;;-4.02;76.77
13476;BME280;6810;63.824;20.288;2023-11-18T13:20:14;102172.09;;;-3.86;75.56
13476;BME280;6810;63.824;20.288;2023-11-18T13:23:02;102172.94;;;-3.87;76.33
13476;BME280;6810;63.824;20.288;2023-11-18T13:25:49;102172.06;;;-3.88;75.44
13476;BME280;6810;63.824;20.288;2023-11-18T13:28:37;102168.56;;;-3.88;76.09
13476;BME280;6810;63.824;20.288;2023-11-18T13:31:24;102173.78;;;-3.88;75.83
13476;BME280;6810;63.824;20.288;2023-11-18T13:34:11;102174.63;;;-3.89;76.47
13476;BME280;6810;63.824;20.288;2023-11-18T13:36:58;102165.91;;;-3.91;75.97
13476;BME280;6810;63.824;20.288;2023-11-18T13:39:53;102158.91;;;-3.94;76.38
13476;BME280;6810;63.824;20.288;2023-11-18T13:42:40;102171.03;;;-3.94;76.42
13476;BME280;6810;63.824;20.288;2023-11-18T13:45:28;102162.38;;;-3.95;76.12
13476;BME280;6810;63.824;20.288;2023-11-18T13:48:16;102168.41;;;-3.96;76.49
13476;BME280;6810;63.824;20.288;2023-11-18T13:51:03;102152.50;;;-4.08;75.78
13476;BME280;6810;63.824;20.288;2023-11-18T13:53:50;102170.00;;;-4.02;75.80
13476;BME280;6810;63.824;20.288;2023-11-18T13:56:37;102170.84;;;-4.02;75.83
13476;BME280;6810;63.824;20.288;2023-11-18T13:59:25;102176.91;;;-4.03;75.57
13476;BME280;6810;63.824;20.288;2023-11-18T14:02:12;102170.66;;;-4.09;75.64
13476;BME280;6810;63.824;20.288;2023-11-18T14:05:00;102147.00;;;-4.20;76.71
13476;BME280;6810;63.824;20.288;2023-11-18T14:07:47;102163.72;;;-4.10;76.70
13476;BME280;6810;63.824;20.288;2023-11-18T14:10:35;102165.44;;;-4.11;76.65
13476;BME280;6810;63.824;20.288;2023-11-18T14:13:29;102169.75;;;-4.13;76.20
13476;BME280;6810;63.824;20.288;2023-11-18T14:16:16;102162.66;;;-4.18;75.98
13476;BME280;6810;63.824;20.288;2023-11-18T14:19:03;102161.81;;;-4.17;76.53
13476;BME280;6810;63.824;20.288;2023-11-18T14:21:51;102168.66;;;-4.21;76.20
13476;BME280;6810;63.824;20.288;2023-11-18T14:24:38;102175.50;;;-4.24;76.51
13476;BME280;6810;63.824;20.288;2023-11-18T14:27:25;102162.44;;;-4.27;75.63
13476;BME280;6810;63.824;20.288;2023-11-18T14:30:13;102157.09;;;-4.32;76.63
13476;BME280;6810;63.824;20.288;2023-11-18T14:33:00;102057.59;;;-4.93;75.42
13476;BME280;6810;63.824;20.288;2023-11-18T14:35:47;102155.34;;;-4.33;76.91
13476;BME280;6810;63.824;20.288;2023-11-18T14:38:34;102147.44;;;-4.37;76.54
13476;BME280;6810;63.824;20.288;2023-11-18T14:41:21;102104.19;;;-4.68;76.67
13476;BME280;6810;63.824;20.288;2023-11-18T14:44:09;102145.53;;;-4.43;75.85
13476;BME280;6810;63.824;20.288;2023-11-18T14:46:56;102163.78;;;-4.41;76.26
13476;BME280;6810;63.824;20.288;2023-11-18T14:49:43;102101.44;;;-4.74;76.00
13476;BME280;6810;63.824;20.288;2023-11-18T14:52:30;102150.69;;;-4.46;75.81
13476;BME280;6810;63.824;20.288;2023-11-18T14:55:18;102153.25;;;-4.47;76.47
13476;BME280;6810;63.824;20.288;2023-11-18T14:58:05;102147.03;;;-4.52;76.69
13476;BME280;6810;63.824;20.288;2023-11-18T15:00:33;102152.22;;;-4.52;76.14
13476;BME280;6810;63.824;20.288;2023-11-18T15:03:20;102140.91;;;-4.56;76.76
13476;BME280;6810;63.824;20.288;2023-11-18T15:06:07;102154.72;;;-4.57;75.74
13476;BME280;6810;63.824;20.288;2023-11-18T15:08:54;102143.38;;;-4.60;76.91
13476;BME280;6810;63.824;20.288;2023-11-18T15:11:42;102138.00;;;-4.68;76.70
13476;BME280;6810;63.824;20.288;2023-11-18T15:14:29;102139.84;;;-4.62;76.21
13476;BME280;6810;63.824;20.288;2023-11-18T15:17:16;102136.28;;;-4.66;75.74
13476;BME280;6810;63.824;20.288;2023-11-18T15:20:13;102133.59;;;-4.69;75.79
13476;BME280;6810;63.824;20.288;2023-11-18T15:23:01;102141.38;;;-4.70;75.81
13476;BME280;6810;63.824;20.288;2023-11-18T15:25:49;102138.59;;;-4.76;76.10
13476;BME280;6810;63.824;20.288;2023-11-18T15:28:39;102138.53;;;-4.79;76.41
13476;BME280;6810;63.824;20.288;2023-11-18T15:31:26;102143.78;;;-4.78;76.15
13476;BME280;6810;63.824;20.288;2023-11-18T15:34:13;102148.88;;;-4.81;76.61
13476;BME280;6810;63.824;20.288;2023-11-18T15:37:00;102137.50;;;-4.84;76.55
13476;BME280;6810;63.824;20.288;2023-11-18T15:39:47;102151.31;;;-4.87;75.66
13476;BME280;6810;63.824;20.288;2023-11-18T15:42:34;102139.97;;;-4.90;76.02
13476;BME280;6810;63.824;20.288;2023-11-18T15:45:22;102145.06;;;-4.93;75.90
13476;BME280;6810;63.824;20.288;2023-11-18T15:48:09;102137.16;;;-4.98;76.23
13476;BME280;6810;63.824;20.288;2023-11-18T15:50:56;102140.59;;;-4.99;76.65
13476;BME280;6810;63.824;20.288;2023-11-18T15:53:43;102131.75;;;-5.05;76.52
13476;BME280;6810;63.824;20.288;2023-11-18T15:56:30;102144.78;;;-5.04;76.01
13476;BME280;6810;63.824;20.288;2023-11-18T15:59:17;102140.34;;;-5.08;76.32
13476;BME280;6810;63.824;20.288;2023-11-18T16:02:04;102132.47;;;-5.11;76.09
13476;BME280;6810;63.824;20.288;2023-11-18T16:04:51;102136.69;;;-5.14;75.69
13476;BME280;6810;63.824;20.288;2023-11-18T16:07:38;102103.19;;;-5.37;76.03
13476;BME280;6810;63.824;20.288;2023-11-18T16:10:27;102134.81;;;-5.20;76.61
13476;BME280;6810;63.824;20.288;2023-11-18T16:13:14;102126.81;;;-5.27;76.16
13476;BME280;6810;63.824;20.288;2023-11-18T16:16:02;102130.28;;;-5.27;75.98
13476;BME280;6810;63.824;20.288;2023-11-18T16:18:51;102061.53;;;-5.71;75.89
13476;BME280;6810;63.824;20.288;2023-11-18T16:21:38;102142.28;;;-5.32;76.46
13476;BME280;6810;63.824;20.288;2023-11-18T16:24:25;102125.72;;;-5.36;76.25
13476;BME280;6810;63.824;20.288;2023-11-18T16:27:12;102099.09;;;-5.58;76.50
13476;BME280;6810;63.824;20.288;2023-11-18T16:29:59;102130.78;;;-5.40;76.49
13476;BME280;6810;63.824;20.288;2023-11-18T16:32:46;102135.03;;;-5.42;75.72
13476;BME280;6810;63.824;20.288;2023-11-18T16:35:33;102063.72;;;-5.86;76.57
13476;BME280;6810;63.824;20.288;2023-11-18T16:38:20;102130.56;;;-5.48;75.93
13476;BME280;6810;63.824;20.288;2023-11-18T16:41:07;102132.22;;;-5.50;76.08
13476;BME280;6810;63.824;20.288;2023-11-18T16:44:10;102139.03;;;-5.53;76.55
13476;BME280;6810;63.824;20.288;2023-11-18T16:46:57;102134.69;;;-5.54;76.25
13476;BME280;6810;63.824;20.288;2023-11-18T16:49:44;102129.38;;;-5.59;76.43
13476;BME280;6810;63.824;20.288;2023-11-18T16:52:32;102101.88;;;-5.82;75.95
13476;BME280;6810;63.824;20.288;2023-11-18T16:55:19;102124.88;;;-5.64;75.98
13476;BME280;6810;63.824;20.288;2023-11-18T16:58:06;102117.88;;;-5.67;75.69
13476;BME280;6810;63.824;20.288;2023-11-18T17:00:53;102076.38;;;-5.96;76.02
13476;BME280;6810;63.824;20.288;2023-11-18T17:03:40;102129.06;;;-5.69;75.93
13476;BME280;6810;63.824;20.288;2023-11-18T17:06:27;102126.28;;;-5.75;76.21
13476;BME280;6810;63.824;20.288;2023-11-18T17:09:14;102130.63;;;-5.74;76.40
13476;BME280;6810;63.824;20.288;2023-11-18T17:12:01;102133.13;;;-5.77;76.48
13476;BME280;6810;63.824;20.288;2023-11-18T17:14:48;102135.63;;;-5.80;76.03
13476;BME280;6810;63.824;20.288;2023-11-18T17:17:35;102122.41;;;-5.89;76.28
13476;BME280;6810;63.824;20.288;2023-11-18T17:20:22;102117.13;;;-5.92;76.37
13476;BME280;6810;63.824;20.288;2023-11-18T17:23:09;102131.06;;;-5.90;75.74
13476;BME280;6810;63.824;20.288;2023-11-18T17:25:56;102133.66;;;-5.90;75.88
13476;BME280;6810;63.824;20.288;2023-11-18T17:28:43;102104.53;;;-6.08;76.09
13476;BME280;6810;63.824;20.288;2023-11-18T17:31:31;102125.69;;;-5.96;76.37
13476;BME280;6810;63.824;20.288;2023-11-18T17:34:18;102126.44;;;-5.99;75.92
13476;BME280;6810;63.824;20.288;2023-11-18T17:37:05;102111.44;;;-6.09;76.06
13476;BME280;6810;63.824;20.288;2023-11-18T17:39:52;102122.84;;;-6.04;75.90
13476;BME280;6810;63.824;20.288;2023-11-18T17:42:40;102121.91;;;-6.06;75.61
13476;BME280;6810;63.824;20.288;2023-11-18T17:45:27;102106.13;;;-6.13;75.87
13476;BME280;6810;63.824;20.288;2023-11-18T17:48:14;102119.13;;;-6.12;75.89
13476;BME280;6810;63.824;20.288;2023-11-18T17:51:01;102117.31;;;-6.14;75.94
13476;BME280;6810;63.824;20.288;2023-11-18T17:53:49;102110.31;;;-6.17;75.91
13476;BME280;6810;63.824;20.288;2023-11-18T17:56:36;102109.28;;;-6.22;75.86
13476;BME280;6810;63.824;20.288;2023-11-18T17:59:23;102109.28;;;-6.22;75.89
13476;BME280;6810;63.824;20.288;2023-11-18T18:02:10;102104.84;;;-6.26;75.93
13476;BME280;6810;63.824;20.288;2023-11-18T18:04:57;102079.06;;;-6.48;75.88
13476;BME280;6810;63.824;20.288;2023-11-18T18:07:44;102106.50;;;-6.28;76.05
13476;BME280;6810;63.824;20.288;2023-11-18T18:10:32;102115.06;;;-6.30;75.74
13476;BME280;6810;63.824;20.288;2023-11-18T18:13:18;102106.31;;;-6.34;75.76
13476;BME280;6810;63.824;20.288;2023-11-18T18:16:06;102105.34;;;-6.37;76.26
13476;BME280;6810;63.824;20.288;2023-11-18T18:18:53;102103.56;;;-6.38;75.83
13476;BME280;6810;63.824;20.288;2023-11-18T18:21:40;102100.88;;;-6.41;75.80
13476;BME280;6810;63.824;20.288;2023-11-18T18:24:27;102099.06;;;-6.44;75.82
13476;BME280;6810;63.824;20.288;2023-11-18T18:27:14;102088.63;;;-6.47;75.76
13476;BME280;6810;63.824;20.288;2023-11-18T18:30:02;102033.78;;;-6.85;75.57
13476;BME280;6810;63.824;20.288;2023-11-18T18:32:49;102083.03;;;-6.59;75.80
13476;BME280;6810;63.824;20.288;2023-11-18T18:35:36;102080.34;;;-6.62;76.06
13476;BME280;6810;63.824;20.288;2023-11-18T18:38:23;102088.28;;;-6.57;75.94
13476;BME280;6810;63.824;20.288;2023-11-18T18:41:10;102083.00;;;-6.60;75.69
13476;BME280;6810;63.824;20.288;2023-11-18T18:43:58;102082.94;;;-6.62;75.85
13476;BME280;6810;63.824;20.288;2023-11-18T18:46:44;102082.00;;;-6.64;75.48
13476;BME280;6810;63.824;20.288;2023-11-18T18:49:31;102077.56;;;-6.68;75.67
13476;BME280;6810;63.824;20.288;2023-11-18T18:52:18;102054.59;;;-6.82;75.88
13476;BME280;6810;63.824;20.288;2023-11-18T18:55:06;102068.63;;;-6.76;76.01
13476;BME280;6810;63.824;20.288;2023-11-18T18:57:53;102067.81;;;-6.75;75.76
13476;BME280;6810;63.824;20.288;2023-11-18T19:00:40;102069.44;;;-6.77;75.80
13476;BME280;6810;63.824;20.288;2023-11-18T19:03:27;102072.00;;;-6.78;75.84
13476;BME280;6810;63.824;20.288;2023-11-18T19:06:15;102067.56;;;-6.82;75.73
13476;BME280;6810;63.824;20.288;2023-11-18T19:09:01;102079.56;;;-6.84;75.71
13476;BME280;6810;63.824;20.288;2023-11-18T19:11:49;102056.09;;;-6.89;75.67
13476;BME280;6810;63.824;20.288;2023-11-18T19:14:35;102067.34;;;-6.88;75.74
13476;BME280;6810;63.824;20.288;2023-11-18T19:17:22;102049.84;;;-6.95;75.75
13476;BME280;6810;63.824;20.288;2023-11-18T19:20:11;102066.31;;;-6.93;75.69
13476;BME280;6810;63.824;20.288;2023-11-18T19:22:58;102059.38;;;-6.94;75.68
13476;BME280;6810;63.824;20.288;2023-11-18T19:25:45;102061.03;;;-6.96;75.91
13476;BME280;6810;63.824;20.288;2023-11-18T19:28:32;102051.34;;;-7.02;75.65
13476;BME280;6810;63.824;20.288;2023-11-18T19:31:19;102061.75;;;-7.00;75.58
13476;BME280;6810;63.824;20.288;2023-11-18T19:34:06;102052.19;;;-7.03;75.50
13476;BME280;6810;63.824;20.288;2023-11-18T19:36:53;102056.47;;;-7.03;75.91
13476;BME280;6810;63.824;20.288;2023-11-18T19:39:41;102060.78;;;-7.04;75.73
13476;BME280;6810;63.824;20.288;2023-11-18T19:42:28;102042.34;;;-7.13;75.78
13476;BME280;6810;63.824;20.288;2023-11-18T19:45:15;102059.78;;;-7.07;75.74
13476;BME280;6810;63.824;20.288;2023-11-18T19:48:02;102064.03;;;-7.09;75.65
13476;BME280;6810;63.824;20.288;2023-11-18T19:50:50;102061.47;;;-7.09;75.67
13476;BME280;6810;63.824;20.288;2023-11-18T19:53:37;102047.34;;;-7.18;75.71
13476;BME280;6810;63.824;20.288;2023-11-18T19:56:24;102062.16;;;-7.13;75.62
13476;BME280;6810;63.824;20.288;2023-11-18T19:59:11;102058.56;;;-7.18;75.99
13476;BME280;6810;63.824;20.288;2023-11-18T20:01:59;102062.91;;;-7.18;75.77
13476;BME280;6810;63.824;20.288;2023-11-18T20:04:45;102033.91;;;-7.33;75.81
13476;BME280;6810;63.824;20.288;2023-11-18T20:07:33;102056.72;;;-7.21;75.64
13476;BME280;6810;63.824;20.288;2023-11-18T20:10:20;102061.00;;;-7.23;75.65
13476;BME280;6810;63.824;20.288;2023-11-18T20:13:07;102048.75;;;-7.27;75.58
13476;BME280;6810;63.824;20.288;2023-11-18T20:15:54;102049.63;;;-7.27;75.62
13476;BME280;6810;63.824;20.288;2023-11-18T20:18:41;102045.13;;;-7.32;75.31
13476;BME280;6810;63.824;20.288;2023-11-18T20:21:28;102051.28;;;-7.29;75.89
13476;BME280;6810;63.824;20.288;2023-11-18T20:24:15;102039.03;;;-7.34;75.43
13476;BME280;6810;63.824;20.288;2023-11-18T20:27:03;102045.94;;;-7.33;75.57
13476;BME280;6810;63.824;20.288;2023-11-18T20:29:50;102038.97;;;-7.36;75.58
13476;BME280;6810;63.824;20.288;2023-11-18T20:32:37;102040.66;;;-7.36;75.56
13476;BME280;6810;63.824;20.288;2023-11-18T20:35:24;102031.84;;;-7.41;75.42
13476;BME280;6810;63.824;20.288;2023-11-18T20:38:11;102034.50;;;-7.40;75.53
13476;BME280;6810;63.824;20.288;2023-11-18T20:40:58;102040.50;;;-7.41;75.11
13476;BME280;6810;63.824;20.288;2023-11-18T20:43:46;102036.97;;;-7.43;75.59
13476;BME280;6810;63.824;20.288;2023-11-18T20:46:34;102025.44;;;-7.52;75.48
13476;BME280;6810;63.824;20.288;2023-11-18T20:49:21;102052.41;;;-7.46;75.23
13476;BME280;6810;63.824;20.288;2023-11-18T20:52:08;102025.34;;;-7.55;75.60
13476;BME280;6810;63.824;20.288;2023-11-18T20:54:55;102024.28;;;-7.60;75.47
13476;BME280;6810;63.824;20.288;2023-11-18T20:57:42;102036.66;;;-7.52;75.50
13476;BME280;6810;63.824;20.288;2023-11-18T21:00:29;102011.13;;;-7.66;75.49
13476;BME280;6810;63.824;20.288;2023-11-18T21:03:16;102029.63;;;-7.56;75.59
13476;BME280;6810;63.824;20.288;2023-11-18T21:06:03;102031.25;;;-7.58;75.17
13476;BME280;6810;63.824;20.288;2023-11-18T21:08:50;102027.75;;;-7.60;75.45
13476;BME280;6810;63.824;20.288;2023-11-18T21:11:37;102025.97;;;-7.61;75.42
13476;BME280;6810;63.824;20.288;2023-11-18T21:14:47;101939.81;;;-8.07;75.30
13476;BME280;6810;63.824;20.288;2023-11-18T21:17:37;102019.84;;;-7.64;75.44
13476;BME280;6810;63.824;20.288;2023-11-18T21:20:24;102017.19;;;-7.66;75.45
13476;BME280;6810;63.824;20.288;2023-11-18T21:23:12;102018.84;;;-7.68;75.19
13476;BME280;6810;63.824;20.288;2023-11-18T21:25:59;102017.09;;;-7.69;75.17
13476;BME280;6810;63.824;20.288;2023-11-18T21:28:46;102016.16;;;-7.71;75.52
13476;BME280;6810;63.824;20.288;2023-11-18T21:31:36;102008.31;;;-7.72;75.33
13476;BME280;6810;63.824;20.288;2023-11-18T21:34:23;102003.78;;;-7.78;75.47
13476;BME280;6810;63.824;20.288;2023-11-18T21:37:10;102005.53;;;-7.78;75.29
13476;BME280;6810;63.824;20.288;2023-11-18T21:39:57;102012.41;;;-7.79;75.39
13476;BME280;6810;63.824;20.288;2023-11-18T21:42:44;102002.00;;;-7.80;75.59
13476;BME280;6810;63.824;20.288;2023-11-18T21:45:31;101996.75;;;-7.82;75.09
13476;BME280;6810;63.824;20.288;2023-11-18T21:48:18;101996.72;;;-7.83;75.40
13476;BME280;6810;63.824;20.288;2023-11-18T21:51:05;101987.03;;;-7.89;75.05
13476;BME280;6810;63.824;20.288;2023-11-18T21:53:52;101984.50;;;-7.87;75.31
13476;BME280;6810;63.824;20.288;2023-11-18T21:56:39;101985.25;;;-7.90;75.48
13476;BME280;6810;63.824;20.288;2023-11-18T21:59:26;101974.81;;;-7.93;75.14
13476;BME280;6810;63.824;20.288;2023-11-18T22:02:13;101959.97;;;-7.98;75.70
13476;BME280;6810;63.824;20.288;2023-11-18T22:05:00;101973.06;;;-7.94;75.55
13476;BME280;6810;63.824;20.288;2023-11-18T22:07:47;101959.91;;;-8.00;75.41
13476;BME280;6810;63.824;20.288;2023-11-18T22:10:34;101965.19;;;-7.97;75.22
13476;BME280;6810;63.824;20.288;2023-11-18T22:13:21;101945.69;;;-8.11;75.50
13476;BME280;6810;63.824;20.288;2023-11-18T22:16:08;101964.19;;;-8.00;75.26
13476;BME280;6810;63.824;20.288;2023-11-18T22:18:55;101961.59;;;-8.00;75.16
13476;BME280;6810;63.824;20.288;2023-11-18T22:21:43;101937.78;;;-8.15;75.41
13476;BME280;6810;63.824;20.288;2023-11-18T22:24:30;101968.50;;;-8.01;75.17
13476;BME280;6810;63.824;20.288;2023-11-18T22:27:17;101961.53;;;-8.02;74.85
13476;BME280;6810;63.824;20.288;2023-11-18T22:30:04;101961.53;;;-8.02;74.96
13476;BME280;6810;63.824;20.288;2023-11-18T22:32:51;101957.22;;;-8.03;75.28
13476;BME280;6810;63.824;20.288;2023-11-18T22:35:39;101956.31;;;-8.03;75.29
13476;BME280;6810;63.824;20.288;2023-11-18T22:38:26;101958.00;;;-8.04;75.22
13476;BME280;6810;63.824;20.288;2023-11-18T22:41:13;101924.75;;;-8.18;75.15
13476;BME280;6810;63.824;20.288;2023-11-18T22:44:00;101929.34;;;-8.10;75.20
13476;BME280;6810;63.824;20.288;2023-11-18T22:46:49;101942.34;;;-8.08;75.11
13476;BME280;6810;63.824;20.288;2023-11-18T22:49:37;101941.47;;;-8.09;75.20
13476;BME280;6810;63.824;20.288;2023-11-18T22:52:24;101923.09;;;-8.16;75.32
13476;BME280;6810;63.824;20.288;2023-11-18T22:55:11;101925.84;;;-8.12;75.07
13476;BME280;6810;63.824;20.288;2023-11-18T22:57:58;101921.38;;;-8.16;74.97
13476;BME280;6810;63.824;20.288;2023-11-18T23:00:44;101916.22;;;-8.16;75.08
13476;BME280;6810;63.824;20.288;2023-11-18T23:03:34;101910.19;;;-8.16;75.74
13476;BME280;6810;63.824;20.288;2023-11-18T23:06:21;101904.13;;;-8.17;75.45
13476;BME280;6810;63.824;20.288;2023-11-18T23:09:09;101904.06;;;-8.18;75.17
13476;BME280;6810;63.824;20.288;2023-11-18T23:11:59;101869.69;;;-8.41;75.14
13476;BME280;6810;63.824;20.288;2023-11-18T23:14:46;101901.44;;;-8.20;75.28
13476;BME280;6810;63.824;20.288;2023-11-18T23:17:33;101903.13;;;-8.20;75.20
13476;BME280;6810;63.824;20.288;2023-11-18T23:20:20;101906.59;;;-8.20;75.73
13476;BME280;6810;63.824;20.288;2023-11-18T23:23:07;101903.13;;;-8.20;75.19
13476;BME280;6810;63.824;20.288;2023-11-18T23:25:54;101901.38;;;-8.21;75.09
13476;BME280;6810;63.824;20.288;2023-11-18T23:28:41;101900.53;;;-8.20;75.29
13476;BME280;6810;63.824;20.288;2023-11-18T23:31:28;101896.25;;;-8.20;75.12
13476;BME280;6810;63.824;20.288;2023-11-18T23:34:15;101885.03;;;-8.20;75.37
13476;BME280;6810;63.824;20.288;2023-11-18T23:37:03;101891.09;;;-8.20;75.56
13476;BME280;6810;63.824;20.288;2023-11-18T23:39:50;101879.81;;;-8.22;75.61
13476;BME280;6810;63.824;20.288;2023-11-18T23:42:37;101886.81;;;-8.19;74.89
13476;BME280;6810;63.824;20.288;2023-11-18T23:45:31;101876.41;;;-8.21;75.16
13476;BME280;6810;63.824;20.288;2023-11-18T23:48:18;101874.69;;;-8.20;75.19
13476;BME280;6810;63.824;20.288;2023-11-18T23:51:05;101876.34;;;-8.24;75.38
13476;BME280;6810;63.824;20.288;2023-11-18T23:53:53;101871.25;;;-8.21;75.54
13476;BME280;6810;63.824;20.288;2023-11-18T23:56:40;101873.81;;;-8.22;74.74
13476;BME280;6810;63.824;20.288;2023-11-18T23:59:27;101868.59;;;-8.24;75.35
